シャルル・ド・ゴール国際空港(パリ)の過去48時間の天気

シャルル・ド・ゴール国際空港(パリ) (Paris-Aeroport Charles De Gaulle)

現在時刻: 10/18 10:22 CEST (10/18 08:22 UTC) 以下の時間は現地時間です。

過去48時間のMETAR気象情報
時間 風向 風速(m/s) 視程 気温(℃) 湿度(%) 気圧(hPa) 天気現象
18 10:00 南南西 8 10km以上 12 67 1007
18 09:30 南南西 7 10km以上 12 67 1007
18 09:00 南西 7 10km以上 11 71 1006
18 08:30 南西 7 10km以上 11 76 1007
18 08:00 南西 9 10km以上 13 82 1006 弱いしゅう雨
18 07:30 11 10km以上 14 77 1006 弱いしゅう雨
18 07:00 10 10km以上 14 77 1006
18 06:30 9 10km以上 13 88 1006
18 06:00 8 10km以上 14 82 1006
18 05:30 7 10km以上 14 82 1006
18 05:00 8 10km以上 14 82 1006
18 04:30 7 10km以上 14 82 1007
18 04:00 7 10km以上 14 82 1007
18 03:30 7 10km以上 14 82 1008
18 03:00 7 10km以上 14 82 1008
18 02:30 7 10km以上 14 88 1008
18 02:00 8 10km以上 15 82 1008
18 01:30 7 10km以上 15 82 1008
18 01:00 7 10km以上 15 82 1009
18 00:30 6 10km以上 15 82 1009
18 00:00 7 10km以上 15 88 1009
17 23:30 6 10km以上 15 88 1009
17 23:00 南南東 6 10km以上 15 88 1009
17 22:30 6 10km以上 15 88 1009
17 22:00 6 10km以上 14 94 1009
17 21:30 5 10km以上 14 88 1009
17 21:00 5 10km以上 15 82 1010
17 20:30 南南東 5 10km以上 15 82 1010
17 20:00 南南東 5 10km以上 15 82 1010
17 19:30 5 10km以上 16 72 1010
17 19:00 4 10km以上 16 72 1010
17 18:30 5 10km以上 16 72 1010
17 18:00 7 10km以上 16 72 1010
17 17:30 5 10km以上 17 72 1009
17 15:30 4 10km以上 15 82 1010
17 15:05 4 10km以上 15 82 1010 弱い雨
17 15:00 5 10km以上 15 82 1010
17 14:30 4 10km以上 14 88 1010
17 14:00 4 10km以上 14 82 1010
17 13:30 南東 5 10km以上 14 88 1010
17 13:00 南南東 4 10km以上 13 88 1011
17 12:30 南南東 5 10km以上 13 88 1011 弱い霧雨
17 12:00 南南東 4 10km以上 13 88 1011
17 11:41 4 10km以上 13 88 1011 弱い雨
17 11:30 南南西 4 10km以上 13 88 1011 弱い雨
17 11:00 南南西 5 10km以上 13 88 1011
17 10:30 4 10km以上 13 94 1011
17 10:00 4 10km以上 13 94 1011
17 09:30 4 10km以上 13 94 1011
17 09:00 南南東 3 10km以上 12 100 1011
17 08:30 3 10km以上 12 94 1011 弱い霧雨
17 08:00 3 10km以上 12 94 1011 弱い霧雨
17 07:30 南南東 3 10km以上 12 94 1010 弱い雨 弱い霧雨
17 07:00 南南東 3 10km以上 12 94 1010
17 06:30 3 10km以上 11 100 1010
17 06:00 3 10km以上 11 100 1010
17 05:30 南南西 3 10km以上 12 88 1010
17 05:00 4 10km以上 12 94 1010
17 04:30 南西 5 10km以上 12 94 1010
17 04:00 南西 5 10km以上 13 94 1010 弱い雨 弱い霧雨
17 03:30 西南西 6 10km以上 13 94 1010
17 03:00 西南西 6 10km以上 14 94 1010
17 02:30 南南西 8 10km以上 15 88 1009
17 02:00 南南西 9 10km以上 15 88 1009
17 01:30 8 10km以上 15 88 1008
17 01:00 8 10km以上 14 94 1008
17 00:30 7 10km以上 14 94 1008
17 00:00 7 10km以上 14 94 1008
16 23:30 7 10km以上 14 94 1008
16 23:00 7 10km以上 14 94 1008
16 22:30 7 8000m 14 88 1008 弱い雨
16 22:00 7 3000m 13 94 1008 雨 もや
16 21:30 8 10km以上 14 88 1008 弱い雨
16 21:00 9 10km以上 14 88 1008 弱い雨
16 20:30 8 10km以上 14 88 1008 弱い雨
16 20:00 8 10km以上 14 88 1008 弱い雨
16 19:30 8 10km以上 14 88 1008
16 19:00 8 10km以上 14 94 1008
16 18:30 9 10km以上 14 94 1008 弱い雨
16 18:00 8 6000m 14 94 1008 弱い雨
16 17:30 8 4500m 14 94 1009 弱い雨 もや
16 17:00 8 8000m 14 94 1009 弱い霧雨
16 16:30 9 5000m 15 88 1009 弱い霧雨
16 16:00 9 5000m 15 88 1009 弱い霧雨
16 15:30 10 10km以上 16 77 1009 弱い霧雨
16 15:00 9 10km以上 16 77 1009
16 14:30 10 10km以上 16 77 1009
16 14:00 8 10km以上 15 82 1009
16 13:30 9 10km以上 15 77 1009
16 13:00 10 10km以上 15 77 1009
16 12:30 9 10km以上 15 77 1009
16 12:00 8 10km以上 14 82 1009
16 11:30 9 8000m 14 82 1009 弱い雨
16 11:00 9 3800m 14 82 1009 弱い雨 もや
16 10:30 8 10km以上 14 82 1009
LFPG 180800Z 21015KT CAVOK 12/06 Q1007 NOSIG
LFPG 180730Z 21013KT CAVOK 12/06 Q1007 NOSIG
LFPG 180700Z 22013KT CAVOK 11/06 Q1006 NOSIG
LFPG 180630Z 23013KT CAVOK 11/07 Q1007 NOSIG
LFPG 180600Z 22017KT 9999 -SHRA SCT025 BKN071 13/10 Q1006 TEMPO 24025G40KT 1500 TSRA SCT012CB
LFPG 180530Z 19021KT 9999 -SHRA BKN021 SCT041 14/10 Q1006 TEMPO 24025G40KT 1500 TSRA SCT012CB
LFPG 180500Z 18020KT 9999 BKN022 SCT030 14/10 Q1006 NOSIG
LFPG 180430Z 18017KT 9999 SCT014 SCT020 13/11 Q1006 NOSIG
LFPG 180400Z 17016KT 9999 SCT014 SCT023 14/11 Q1006 NOSIG
LFPG 180330Z 18014KT 9999 SCT014 SCT051 14/11 Q1006 NOSIG
LFPG 180300Z 17015KT 9999 BKN013 SCT070 BKN200 14/11 Q1006 NOSIG
LFPG 180230Z 18013KT 9999 BKN011 SCT071 BKN170 14/11 Q1007 NOSIG
LFPG 180200Z 18014KT 9999 BKN014 SCT100 BKN170 14/11 Q1007 NOSIG
LFPG 180130Z 18013KT 9999 FEW017 BKN097 BKN180 14/11 Q1008 NOSIG
LFPG 180100Z 18013KT 9999 SCT014 SCT080 BKN180 14/11 Q1008 NOSIG
LFPG 180030Z 18013KT 9999 BKN014 BKN180 14/12 Q1008 NOSIG
LFPG 180000Z 19015KT 9999 BKN014 BKN170 15/12 Q1008 NOSIG
LFPG 172330Z 19013KT 9999 SCT016 SCT073 BKN097 15/12 Q1008 NOSIG
LFPG 172300Z 19013KT 9999 SCT016 SCT073 BKN097 15/12 Q1009 NOSIG
LFPG 172230Z 19012KT 9999 SCT013 SCT019 BKN097 15/12 Q1009 NOSIG
LFPG 172200Z 18014KT 160V220 9999 SCT011 BKN017 15/13 Q1009 NOSIG
LFPG 172130Z 18012KT 9999 SCT011 BKN017 15/13 Q1009 NOSIG
LFPG 172100Z 16011KT 9999 BKN009 SCT040 15/13 Q1009 NOSIG
LFPG 172030Z 17011KT 9999 BKN009 SCT040 15/13 Q1009 NOSIG
LFPG 172000Z 17011KT 9999 BKN009 14/13 Q1009 NOSIG
LFPG 171930Z 17010KT 9999 FEW011 BKN098 14/12 Q1009 NOSIG
LFPG 171900Z 17010KT 9999 FEW015 BKN051 15/12 Q1010 NOSIG
LFPG 171830Z 16010KT 9999 SCT013 BKN076 15/12 Q1010 NOSIG
LFPG 171800Z 15009KT 120V180 9999 FEW015 BKN091 15/12 Q1010 NOSIG
LFPG 171730Z 17010KT 9999 FEW018 BKN090 16/11 Q1010 NOSIG
LFPG 171700Z 18008KT 9999 FEW023 BKN080 16/11 Q1010 NOSIG
LFPG 171630Z 18010KT 9999 FEW022 SCT083 16/11 Q1010 NOSIG
LFPG 171600Z 19013KT 9999 FEW022 16/11 Q1010 NOSIG
LFPG 171530Z 17009KT 9999 SCT016 17/12 Q1009 NOSIG
LFPG 171330Z 17008KT 130V190 9999 BKN011 SCT040 15/12 Q1010 NOSIG
LFPG 171305Z 17008KT 140V200 9999 -RA BKN011 SCT040 15/12 Q1010 NOSIG
LFPG 171300Z 18009KT 140V200 9999 BKN011 SCT040 15/12 Q1010 NOSIG
LFPG 171230Z VRB08G20KT 9999 SCT014 SCT040 14/12 Q1010 NOSIG
LFPG 171200Z VRB07KT 9999 FEW007 BKN017 14/11 Q1010 NOSIG
LFPG 171130Z 14010KT 070V160 9999 FEW007 SCT028 BKN048 14/12 Q1010 NOSIG
LFPG 171100Z 15007KT 120V180 9999 FEW007 BKN024 13/11 Q1011 NOSIG
LFPG 171030Z 16009G20KT 070V190 9999 -DZ FEW010 BKN025 13/11 Q1011 NOSIG
LFPG 171000Z 16008G21KT 130V280 9999 FEW010 BKN032 13/11 Q1011 NOSIG
LFPG 170941Z 19007KT 160V260 9999 -RA FEW008 SCT034 BKN038 13/11 Q1011 NOSIG
LFPG 170930Z 21007KT 9999 -RA FEW008 SCT034 BKN038 13/11 Q1011 TEMPO 3500 SHRA BKN006 SCT013TCU
LFPG 170900Z 20010KT 170V300 9999 FEW008 BKN039 13/11 Q1011 TEMPO 3500 SHRA BKN006 SCT013TCU
LFPG 170830Z 19008KT 9999 SCT007 BKN039 13/12 Q1011 NOSIG
LFPG 170800Z 19007KT 9999 SCT005 BKN040 13/12 Q1011 NOSIG
LFPG 170730Z VRB07KT 9999 SCT005 BKN043 13/12 Q1011 NOSIG
LFPG 170700Z 16005KT 130V260 9999 FEW008 BKN043 12/12 Q1011 NOSIG
LFPG 170630Z 17006KT 150V270 9999 -DZ FEW010 BKN052 12/11 Q1011 NOSIG
LFPG 170600Z 17005KT 9999 -DZ FEW012 BKN052 12/11 Q1011 NOSIG
LFPG 170530Z 16005KT 9999 -RADZ FEW036 BKN053 12/11 Q1010 NOSIG
LFPG 170500Z 16005KT 9999 FEW040 BKN063 12/11 Q1010 NOSIG
LFPG 170430Z 17006KT CAVOK 11/11 Q1010 NOSIG
LFPG 170400Z 17005KT CAVOK 11/11 Q1010 NOSIG
LFPG 170330Z 21005KT 9999 SCT013 12/10 Q1010 NOSIG
LFPG 170300Z 18008KT 9999 SCT011 12/11 Q1010 NOSIG
LFPG 170230Z 22009KT 9999 FEW008 BKN020 12/11 Q1010 NOSIG
LFPG 170200Z 23010KT 9999 -RADZ SCT008 BKN023 13/12 Q1010 NOSIG
LFPG 170130Z 24011KT 9999 SCT006 BKN023 13/12 Q1010 NOSIG
LFPG 170100Z 24012KT 9999 SCT006 BKN020 14/13 Q1010 NOSIG
LFPG 170030Z 20016KT 9999 BKN013 15/13 Q1009 NOSIG
LFPG 170000Z 20017KT 9999 BKN013 15/13 Q1009 TEMPO 20015G25KT
LFPG 162330Z 19016KT 9999 BKN013 15/13 Q1008 TEMPO 20015G25KT
LFPG 162300Z 19016KT 9999 BKN008 BKN013 14/13 Q1008 TEMPO 20015G25KT
LFPG 162230Z 18014KT 9999 BKN010 14/13 Q1008 TEMPO 20015G25KT
LFPG 162200Z 18013KT 9999 BKN010 14/13 Q1008 TEMPO 20015G25KT
LFPG 162130Z 18013KT 9999 BKN010 14/13 Q1008 RERA TEMPO 20015G25KT
LFPG 162100Z 18013KT 150V210 9999 BKN011 14/13 Q1008 RERA TEMPO 20015G25KT
LFPG 162030Z 18014KT 8000 -RA BKN011 14/12 Q1008 TEMPO 20015G25KT
LFPG 162000Z 18013KT 3000 RA BR BKN010 13/12 Q1008 TEMPO 20015G25KT
LFPG 161930Z 17015KT 9999 -RA BKN010 14/12 Q1008 TEMPO 20015G25KT
LFPG 161900Z 18017KT 9999 -RA BKN010 14/12 Q1008 TEMPO 20015G25KT
LFPG 161830Z 18016KT 9999 -RA BKN008 14/12 Q1008 TEMPO 20015G25KT
LFPG 161800Z 18016KT 9999 -RA BKN012 14/12 Q1008 TEMPO 20015G25KT
LFPG 161730Z 18016KT 9999 BKN014 14/12 Q1008 TEMPO 20015G25KT
LFPG 161700Z 18015G26KT 130V200 9999 BKN013 BKN021 14/13 Q1008 TEMPO 20015G25KT
LFPG 161630Z 18018KT 9999 -RA BKN010 BKN018 14/13 Q1008 TEMPO 20015G25KT
LFPG 161600Z 18015KT 6000 -RA BKN008 BKN014 14/13 Q1008 TEMPO 200G20G30KT
LFPG 161530Z 18016KT 4500 -RA BR BKN007 BKN014 14/13 Q1009 TEMPO 200G20G30KT
LFPG 161500Z 17015KT 8000 -DZ BKN007 BKN015 14/13 Q1009 TEMPO 200G20G30KT
LFPG 161430Z 18017G28KT 160V220 5000 -DZ BKN012 BKN021 15/13 Q1009 TEMPO 200G20G30KT
LFPG 161400Z 18017KT 5000 -DZ BKN011 BKN020 15/13 Q1009 TEMPO 200G20G30KT
LFPG 161330Z 18020KT 9999 -DZ BKN016 BKN023 16/12 Q1009 TEMPO 200G20G30KT
LFPG 161300Z 19017KT 9999 OVC020 16/12 Q1009 NOSIG
LFPG 161230Z 19019KT 9999 OVC020 16/12 Q1009 NOSIG
LFPG 161200Z 19016KT 160V230 9999 OVC017 15/12 Q1009 NOSIG
LFPG 161130Z 19018G29KT 9999 BKN019 15/11 Q1009 NOSIG
LFPG 161100Z 18019KT 9999 BKN020 BKN036 15/11 Q1009 NOSIG
LFPG 161030Z 19017KT 9999 BKN018 BKN036 15/11 Q1009 NOSIG
LFPG 161000Z 19016KT 9999 BKN017 BKN036 14/11 Q1009 NOSIG
LFPG 160930Z 18017KT 8000 -RA BKN019 BKN035 14/11 Q1009 NOSIG
LFPG 160900Z 18017KT 3800 -RA BR SCT020 BKN037 14/11 Q1009 NOSIG
LFPG 160830Z 18016KT 9999 FEW014 BKN040 14/11 Q1009 NOSIG